createdAt,value
2023-01-05T00:08:37.146Z,100789.91
2023-01-05T00:18:57.495Z,100768.13
2023-01-05T00:28:58.811Z,100750.69
2023-01-05T00:39:00.044Z,100749.69
2023-01-05T00:49:01.324Z,100748.06
2023-01-05T00:59:02.563Z,100753.25
2023-01-05T01:09:03.855Z,100751.47
2023-01-05T01:19:05.649Z,100734.94
2023-01-05T01:29:07.104Z,100715.81
2023-01-05T01:39:08.374Z,100710.56
2023-01-05T01:49:11.435Z,100707.84
2023-01-05T01:59:12.685Z,100713.97
2023-01-05T02:09:13.952Z,100717.41
2023-01-05T02:19:15.167Z,100716.53
2023-01-05T02:29:16.424Z,100733.06
2023-01-05T02:39:17.687Z,100729.53
2023-01-05T02:49:18.924Z,100721.72
2023-01-05T02:59:20.158Z,100702.47
2023-01-05T03:09:25.867Z,100716.34
2023-01-05T03:19:36.186Z,100716.34
2023-01-05T03:29:56.300Z,100726.75
2023-01-05T03:39:57.527Z,100714.50
2023-01-05T03:49:58.741Z,100715.28
2023-01-05T03:59:59.983Z,100726.53
2023-01-05T04:10:01.386Z,100715.09
2023-01-05T04:20:02.713Z,100725.41
2023-01-05T04:30:04.064Z,100751.69
2023-01-05T04:40:05.340Z,100778.72
2023-01-05T04:50:06.601Z,100768.22
2023-01-05T05:00:07.839Z,100788.44
2023-01-05T05:10:09.103Z,100797.97
2023-01-05T05:20:10.358Z,100809.50
2023-01-05T05:30:11.720Z,100821.78
2023-01-05T05:40:12.958Z,100845.47
2023-01-05T05:50:14.238Z,100855.00
2023-01-05T06:00:15.482Z,100865.50
2023-01-05T06:10:16.721Z,100898.66
2023-01-05T06:20:18.143Z,100892.53
2023-01-05T06:30:19.433Z,100892.53
2023-01-05T06:40:20.694Z,100913.50
2023-01-05T06:50:21.946Z,100909.13
2023-01-05T07:00:23.474Z,100908.28
2023-01-05T07:10:24.746Z,100930.00
2023-01-05T07:20:25.968Z,100931.69
2023-01-05T07:30:27.321Z,100924.66
2023-01-05T07:40:28.689Z,100941.06
2023-01-05T07:50:29.973Z,100940.13
2023-01-05T08:00:31.194Z,100950.50
2023-01-05T08:10:32.525Z,100953.06
2023-01-05T08:20:33.837Z,100975.81
2023-01-05T08:30:35.139Z,100985.44
2023-01-05T08:40:36.369Z,100999.38
2023-01-05T08:50:38.420Z,101012.44
2023-01-05T09:00:39.763Z,101033.38
2023-01-05T09:10:41.014Z,101042.13
2023-01-05T09:20:42.254Z,101045.63
2023-01-05T09:30:50.217Z,101058.72
2023-01-05T09:40:51.951Z,101053.44
2023-01-05T09:50:53.195Z,101070.81
2023-01-05T10:00:54.432Z,101071.56
2023-01-05T10:11:14.288Z,101076.78
2023-01-05T10:21:15.692Z,101060.06
2023-01-05T10:31:16.954Z,101041.78
2023-01-05T10:41:18.192Z,101040.00
2023-01-05T10:51:34.271Z,101052.94
2023-01-05T11:01:35.659Z,101061.50
2023-01-05T11:11:36.998Z,101056.75
2023-01-05T11:21:39.459Z,101048.69
2023-01-05T11:31:42.982Z,101054.53
2023-01-05T11:41:44.449Z,101035.47
2023-01-05T11:51:45.833Z,101048.19
2023-01-05T12:01:47.121Z,101045.69
2023-01-05T12:12:08.650Z,101033.41
2023-01-05T12:43:17.322Z,101066.28
2023-01-05T12:53:18.585Z,101065.28
2023-01-05T13:03:19.808Z,101059.16
2023-01-05T13:13:21.148Z,101055.56
2023-01-05T13:23:22.509Z,101060.69
2023-01-05T13:33:23.733Z,101055.50
2023-01-05T13:43:25.002Z,101068.06
2023-01-05T13:53:26.285Z,101071.69
2023-01-05T14:03:27.533Z,101076.16
2023-01-05T14:13:28.766Z,101093.81
2023-01-05T14:23:30.397Z,101098.13
2023-01-05T14:33:31.635Z,101096.47
2023-01-05T14:43:32.924Z,101103.56
2023-01-05T14:53:34.152Z,101104.38
2023-01-05T15:03:36.544Z,101099.28
2023-01-05T15:13:38.041Z,101099.31
2023-01-05T15:23:39.466Z,101095.03
2023-01-05T15:33:40.712Z,101094.19
2023-01-05T15:43:42.501Z,101112.66
2023-01-05T15:53:44.309Z,101106.56
2023-01-05T16:03:45.545Z,101103.06
2023-01-05T16:13:46.843Z,101116.16
2023-01-05T16:23:48.133Z,101101.34
2023-01-05T16:33:49.371Z,101101.38
2023-01-05T16:43:50.722Z,101095.28
2023-01-05T16:53:52.002Z,101104.88
2023-01-05T17:03:53.297Z,101091.78
2023-01-05T17:13:54.625Z,101088.31
2023-01-05T17:23:55.918Z,101086.53
2023-01-05T17:33:57.463Z,101095.28
2023-01-05T17:43:58.700Z,101097.13
2023-01-05T17:53:59.929Z,101093.66
2023-01-05T18:04:01.141Z,101082.31
2023-01-05T18:14:02.425Z,101085.84
2023-01-05T18:24:03.782Z,101083.19
2023-01-05T18:34:05.119Z,101073.66
2023-01-05T18:44:06.785Z,101077.25
2023-01-05T18:54:08.171Z,101084.28
2023-01-05T19:04:09.407Z,101071.22
2023-01-05T19:14:10.642Z,101068.59
2023-01-05T19:24:11.902Z,101074.75
2023-01-05T19:34:14.778Z,101060.78
2023-01-05T19:44:16.058Z,101055.53
2023-01-05T19:54:17.324Z,101057.28
2023-01-05T20:04:18.621Z,101047.66
2023-01-05T20:14:20.773Z,101049.41
2023-01-05T20:24:22.459Z,101052.91
2023-01-05T20:34:23.691Z,101055.53
2023-01-05T20:44:24.966Z,101052.00
2023-01-05T20:54:26.287Z,101040.66
2023-01-05T21:04:27.534Z,101038.91
2023-01-05T21:14:28.833Z,101048.53
2023-01-05T21:24:30.105Z,101039.81
2023-01-05T21:34:31.357Z,101034.56
2023-01-05T21:44:32.992Z,101030.19
2023-01-05T21:54:53.130Z,101025.84
2023-01-05T22:04:54.392Z,101023.97
2023-01-05T22:14:55.613Z,101017.03
2023-01-05T22:24:56.994Z,101015.28
2023-01-05T22:34:58.230Z,101022.25
2023-01-05T22:44:59.513Z,101007.38
2023-01-05T22:55:00.735Z,100998.66
2023-01-05T23:05:03.906Z,101010.00
2023-01-05T23:15:05.424Z,100993.38
2023-01-05T23:25:06.840Z,100984.59
2023-01-05T23:35:08.093Z,100965.47
2023-01-05T23:45:09.336Z,100958.47
2023-01-05T23:55:10.565Z,100955.84
